createdAt,value
2022-11-29T10:51:17.826Z,2.33
2022-11-29T10:53:46.884Z,4.87
2022-11-29T10:56:22.492Z,2.50
2022-11-29T10:59:02.970Z,3.03
2022-11-29T11:01:32.607Z,5.50
2022-11-29T11:04:04.272Z,3.20
2022-11-29T11:06:46.909Z,3.13
2022-11-29T11:09:20.646Z,5.83
2022-11-29T11:11:52.904Z,4.17
2022-11-29T11:14:24.612Z,6.57
2022-11-29T11:16:54.100Z,9.07
2022-11-29T11:19:28.720Z,3.50
2022-11-29T11:22:00.081Z,2.33
2022-11-29T11:24:30.028Z,2.27
2022-11-29T11:26:58.128Z,2.80
2022-11-29T11:29:29.949Z,4.20
2022-11-29T11:32:00.183Z,2.30
2022-11-29T11:34:31.683Z,4.20
2022-11-29T11:37:26.131Z,2.40
2022-11-29T11:39:57.151Z,3.40
2022-11-29T11:42:38.371Z,4.05
2022-11-29T11:45:24.333Z,3.05
2022-11-29T11:47:54.929Z,3.30
2022-11-29T11:50:32.660Z,3.07
2022-11-29T11:53:06.196Z,1.83
2022-11-29T11:55:38.855Z,2.67
2022-11-29T11:58:19.371Z,2.10
2022-11-29T12:01:06.013Z,2.47
2022-11-29T12:03:40.762Z,2.50
2022-11-29T12:06:31.510Z,1.80
2022-11-29T12:09:04.703Z,2.50
2022-11-29T12:11:40.357Z,3.20
2022-11-29T12:14:09.347Z,2.50
2022-11-29T12:16:40.357Z,2.60
2022-11-29T12:19:17.173Z,3.13
2022-11-29T12:21:48.519Z,2.60
2022-11-29T12:24:27.504Z,6.77
2022-11-29T12:26:59.739Z,8.17
2022-11-29T12:29:32.915Z,5.27
2022-11-29T12:32:12.710Z,10.33
2022-11-29T12:34:56.678Z,3.63
2022-11-29T12:37:33.574Z,2.55
2022-11-29T12:40:08.359Z,5.05
2022-11-29T12:42:47.216Z,16.60
2022-11-29T12:45:34.447Z,3.30
2022-11-29T12:48:13.820Z,4.20
2022-11-29T12:50:52.591Z,3.37
2022-11-29T12:53:47.466Z,3.03
2022-11-29T12:56:24.047Z,2.80
2022-11-29T12:59:01.409Z,2.73
2022-11-29T13:01:39.976Z,5.07
2022-11-29T13:04:17.127Z,3.37
2022-11-29T13:06:51.306Z,4.53
2022-11-29T13:09:55.973Z,2.37
2022-11-29T13:12:29.538Z,3.40
2022-11-29T13:15:04.593Z,3.53
2022-11-29T13:17:40.447Z,4.03
2022-11-29T13:20:24.068Z,2.97
2022-11-29T13:23:00.250Z,4.25
2022-11-29T13:25:33.507Z,4.77
2022-11-29T13:28:07.031Z,7.63
2022-11-29T13:30:40.293Z,6.73
2022-11-29T13:33:18.510Z,3.13
2022-11-29T13:35:54.822Z,3.23
2022-11-29T13:38:30.398Z,3.23
2022-11-29T13:41:05.615Z,3.53
2022-11-29T13:43:43.818Z,4.30
2022-11-29T13:46:21.139Z,4.13
2022-11-29T13:48:51.201Z,4.47
2022-11-29T13:51:28.771Z,5.53
2022-11-29T13:53:58.590Z,6.00
2022-11-29T13:56:42.912Z,5.20
2022-11-29T13:59:20.760Z,6.47
2022-11-29T14:01:51.468Z,4.40
2022-11-29T14:04:35.821Z,4.70
2022-11-29T14:07:18.498Z,5.50
2022-11-29T14:09:52.223Z,5.23
2022-11-29T14:12:38.390Z,6.47
2022-11-29T14:15:25.021Z,9.13
2022-11-29T14:17:55.630Z,6.25
2022-11-29T14:20:46.818Z,8.85
2022-11-29T14:23:17.148Z,9.77
2022-11-29T14:26:37.922Z,6.70
2022-11-29T14:29:44.339Z,9.23
2022-11-29T14:32:24.834Z,8.15
2022-11-29T14:34:59.247Z,10.05
2022-11-29T14:37:41.591Z,10.40
2022-11-29T14:40:24.847Z,11.90
2022-11-29T14:42:54.011Z,12.90
2022-11-29T14:45:25.269Z,13.30
2022-11-29T14:47:54.821Z,13.35
2022-11-29T14:50:35.748Z,11.50
2022-11-29T14:53:05.023Z,11.07
2022-11-29T14:55:36.498Z,14.67
2022-11-29T14:58:26.690Z,13.10
2022-11-29T15:01:10.632Z,16.03
2022-11-29T15:03:47.987Z,12.03
2022-11-29T15:06:26.014Z,12.40
2022-11-29T15:09:02.837Z,14.32
2022-11-29T15:11:41.979Z,14.17
2022-11-29T15:14:21.396Z,14.02
2022-11-29T15:17:02.701Z,13.80
2022-11-29T15:19:50.681Z,12.37
2022-11-29T15:22:20.985Z,14.03
2022-11-29T15:24:54.757Z,17.60
2022-11-29T15:27:23.791Z,16.48
2022-11-29T15:29:52.763Z,14.03
2022-11-29T15:32:26.293Z,13.70
2022-11-29T15:34:57.236Z,14.73
2022-11-29T15:37:39.930Z,18.40
2022-11-29T15:40:14.042Z,13.30
2022-11-29T15:42:45.273Z,18.00
2022-11-29T15:45:28.932Z,16.50
2022-11-29T15:48:12.569Z,17.77
2022-11-29T15:50:47.262Z,17.80
2022-11-29T15:53:20.582Z,23.37
2022-11-29T15:55:51.638Z,17.23
2022-11-29T15:58:20.388Z,19.93
2022-11-29T16:00:50.816Z,20.20
2022-11-29T16:03:25.372Z,20.17
2022-11-29T16:06:02.696Z,24.10
2022-11-29T16:08:35.303Z,19.57
2022-11-29T16:11:03.499Z,21.97
2022-11-29T16:13:35.902Z,26.67
2022-11-29T16:16:08.636Z,25.80
2022-11-29T16:18:37.838Z,28.40
2022-11-29T16:21:08.308Z,31.03
2022-11-29T16:23:37.516Z,36.30
2022-11-29T16:26:15.094Z,28.27
2022-11-29T16:28:45.091Z,29.93
2022-11-29T16:31:18.206Z,31.20
2022-11-29T16:33:48.977Z,28.70
2022-11-29T16:36:22.266Z,24.77
2022-11-29T16:38:52.559Z,25.47
2022-11-29T16:41:26.345Z,28.30
2022-11-29T16:43:57.488Z,26.80
2022-11-29T16:46:37.515Z,29.80
2022-11-29T16:49:36.706Z,31.00
2022-11-29T16:52:24.943Z,37.97
2022-11-29T16:54:53.410Z,33.20
2022-11-29T16:57:22.222Z,34.80
2022-11-29T16:59:50.609Z,35.07
2022-11-29T17:02:19.257Z,36.20
2022-11-29T17:04:47.901Z,36.42
2022-11-29T17:07:21.722Z,40.20
2022-11-29T17:09:49.860Z,38.60
2022-11-29T17:12:19.212Z,35.57
2022-11-29T17:14:47.404Z,34.27
2022-11-29T17:17:17.258Z,44.70
2022-11-29T17:19:45.640Z,34.03
2022-11-29T17:22:13.957Z,32.97
2022-11-29T17:24:47.975Z,35.13
2022-11-29T17:27:16.744Z,41.23
2022-11-29T17:29:44.886Z,37.47
2022-11-29T17:32:13.043Z,36.80
2022-11-29T17:34:41.042Z,29.10
2022-11-29T17:37:09.400Z,34.53
2022-11-29T17:39:37.477Z,34.87
2022-11-29T17:42:07.151Z,31.83
2022-11-29T17:44:35.908Z,37.27
2022-11-29T17:47:03.936Z,37.03
2022-11-29T17:49:32.058Z,35.83
2022-11-29T17:52:00.202Z,32.93
2022-11-29T17:54:28.305Z,30.90
2022-11-29T17:56:56.703Z,35.65
2022-11-29T17:59:26.076Z,38.40
2022-11-29T18:01:54.253Z,37.05
2022-11-29T18:04:22.550Z,33.80
2022-11-29T18:06:50.953Z,36.90
2022-11-29T18:09:20.172Z,36.97
2022-11-29T18:11:50.449Z,37.70
2022-11-29T18:14:20.474Z,35.77
2022-11-29T18:16:50.398Z,38.23
2022-11-29T18:19:20.250Z,34.88
2022-11-29T18:21:48.861Z,35.13
2022-11-29T18:24:17.408Z,40.07
2022-11-29T18:26:46.153Z,35.10
2022-11-29T18:29:14.429Z,35.77
2022-11-29T18:31:43.896Z,36.00
2022-11-29T18:34:15.095Z,34.97
2022-11-29T18:36:44.567Z,38.30
2022-11-29T18:39:15.104Z,37.70
2022-11-29T18:41:44.420Z,39.50
2022-11-29T18:44:14.171Z,34.60
2022-11-29T18:46:43.974Z,43.63
2022-11-29T18:49:15.527Z,35.77
2022-11-29T18:51:45.615Z,39.13
2022-11-29T18:54:14.596Z,37.67
2022-11-29T18:56:43.558Z,40.80
2022-11-29T18:59:14.628Z,33.97
2022-11-29T19:01:43.670Z,39.08
2022-11-29T19:04:17.329Z,43.37
2022-11-29T19:06:45.658Z,34.85
2022-11-29T19:09:15.612Z,35.00
2022-11-29T19:11:43.746Z,35.63
2022-11-29T19:14:13.497Z,40.00
2022-11-29T19:16:43.175Z,34.17
2022-11-29T19:19:11.565Z,36.13
2022-11-29T19:21:41.594Z,36.00
2022-11-29T19:24:15.121Z,36.55
2022-11-29T19:26:45.469Z,34.60
2022-11-29T19:29:14.141Z,38.97
2022-11-29T19:31:42.817Z,32.83
2022-11-29T19:34:11.102Z,35.22
2022-11-29T19:36:43.741Z,35.43
2022-11-29T19:39:13.864Z,34.90
2022-11-29T19:41:44.172Z,41.03
2022-11-29T19:44:12.890Z,37.05
2022-11-29T19:46:42.422Z,35.07
2022-11-29T19:49:11.195Z,33.17
2022-11-29T19:51:40.892Z,39.00
2022-11-29T19:54:10.560Z,35.37
2022-11-29T19:56:39.442Z,38.43
2022-11-29T19:59:08.586Z,37.20
2022-11-29T20:01:41.409Z,38.67
2022-11-29T20:04:11.728Z,33.77
2022-11-29T20:06:41.687Z,39.37
2022-11-29T20:09:10.049Z,38.30
2022-11-29T20:11:38.039Z,32.03
2022-11-29T20:14:07.848Z,37.90
2022-11-29T20:16:38.295Z,36.37
2022-11-29T20:19:10.819Z,35.87
2022-11-29T20:21:44.128Z,33.13
2022-11-29T20:24:14.473Z,38.97
2022-11-29T20:26:44.894Z,33.70
2022-11-29T20:29:14.119Z,34.43
2022-11-29T20:31:49.419Z,34.13
2022-11-29T20:34:18.010Z,34.20
2022-11-29T20:37:14.866Z,36.58
2022-11-29T20:39:50.686Z,38.57
2022-11-29T20:42:36.379Z,40.40
2022-11-29T20:45:08.070Z,34.77
2022-11-29T20:47:45.841Z,30.60
2022-11-29T20:50:22.972Z,41.83
2022-11-29T20:53:02.069Z,34.10
2022-11-29T20:55:30.094Z,30.77
2022-11-29T20:57:58.029Z,37.07
2022-11-29T21:00:26.231Z,29.80
2022-11-29T21:02:54.146Z,31.13
2022-11-29T21:05:22.198Z,34.57
2022-11-29T21:07:50.187Z,34.47
2022-11-29T21:10:20.185Z,33.37
2022-11-29T21:12:48.554Z,29.80
2022-11-29T21:15:17.434Z,32.77
2022-11-29T21:17:46.265Z,34.63
2022-11-29T21:20:19.585Z,36.83
2022-11-29T21:22:55.173Z,34.47
2022-11-29T21:25:33.141Z,43.13
2022-11-29T21:28:02.151Z,34.97
2022-11-29T21:30:30.482Z,29.87
2022-11-29T21:32:58.887Z,34.30
2022-11-29T21:35:27.340Z,35.43
2022-11-29T21:37:58.182Z,35.67
2022-11-29T21:40:27.676Z,34.50
2022-11-29T21:42:55.624Z,35.30
2022-11-29T21:45:23.673Z,37.27
2022-11-29T21:47:51.592Z,33.20
2022-11-29T21:50:19.472Z,35.10
2022-11-29T21:52:47.549Z,33.23
2022-11-29T21:55:15.651Z,35.47
2022-11-29T21:57:45.058Z,33.70
2022-11-29T22:00:14.125Z,32.27
2022-11-29T22:02:42.287Z,31.53
2022-11-29T22:05:10.569Z,32.27
2022-11-29T22:07:38.499Z,36.40
2022-11-29T22:10:13.151Z,36.30
2022-11-29T22:12:51.231Z,33.30
2022-11-29T22:15:24.800Z,40.40
2022-11-29T22:17:53.494Z,33.90
2022-11-29T22:20:21.715Z,38.33
2022-11-29T22:22:50.106Z,32.10
2022-11-29T22:25:18.198Z,35.30
2022-11-29T22:27:46.592Z,39.60
2022-11-29T22:30:14.889Z,35.20
2022-11-29T22:32:44.318Z,36.83
2022-11-29T22:35:12.366Z,36.67
2022-11-29T22:37:40.410Z,42.33
2022-11-29T22:40:09.178Z,37.70
2022-11-29T22:42:37.061Z,36.27
2022-11-29T22:45:05.655Z,39.80
2022-11-29T22:47:33.573Z,40.70
2022-11-29T22:50:02.948Z,39.17
2022-11-29T22:52:31.013Z,46.57
2022-11-29T22:55:04.435Z,46.67
2022-11-29T22:57:33.269Z,52.63
2022-11-29T23:00:01.214Z,51.50
2022-11-29T23:02:29.935Z,40.43
2022-11-29T23:04:57.831Z,43.63
2022-11-29T23:07:27.365Z,46.10
2022-11-29T23:09:56.096Z,47.23
2022-11-29T23:12:23.996Z,46.57
2022-11-29T23:14:56.389Z,44.87
2022-11-29T23:17:24.733Z,47.80
2022-11-29T23:19:52.950Z,48.23
2022-11-29T23:22:20.871Z,40.70
2022-11-29T23:24:50.279Z,39.67
2022-11-29T23:27:18.153Z,43.10
2022-11-29T23:29:46.118Z,39.53
2022-11-29T23:32:14.037Z,40.90
2022-11-29T23:34:42.220Z,45.43
2022-11-29T23:37:10.106Z,38.40
